sensor_id;sensor_type;location;lat;lon;timestamp;temperature;humidity
5960;DHT22;3006;50.956;7.002;2022-07-26T00:01:21;22.30;85.50
5960;DHT22;3006;50.956;7.002;2022-07-26T00:03:51;22.20;85.90
5960;DHT22;3006;50.956;7.002;2022-07-26T00:06:20;22.10;86.20
5960;DHT22;3006;50.956;7.002;2022-07-26T00:08:50;22.00;86.30
5960;DHT22;3006;50.956;7.002;2022-07-26T00:11:19;22.00;86.70
5960;DHT22;3006;50.956;7.002;2022-07-26T00:13:47;22.00;87.10
5960;DHT22;3006;50.956;7.002;2022-07-26T00:16:15;21.90;87.10
5960;DHT22;3006;50.956;7.002;2022-07-26T00:18:43;22.00;87.00
5960;DHT22;3006;50.956;7.002;2022-07-26T00:21:13;22.00;87.30
5960;DHT22;3006;50.956;7.002;2022-07-26T00:23:41;21.90;87.30
5960;DHT22;3006;50.956;7.002;2022-07-26T00:26:10;21.90;87.70
5960;DHT22;3006;50.956;7.002;2022-07-26T00:28:39;21.80;87.70
5960;DHT22;3006;50.956;7.002;2022-07-26T00:31:08;21.80;88.00
5960;DHT22;3006;50.956;7.002;2022-07-26T00:33:37;21.70;88.10
5960;DHT22;3006;50.956;7.002;2022-07-26T00:36:06;21.70;88.20
5960;DHT22;3006;50.956;7.002;2022-07-26T00:38:34;21.70;88.50
5960;DHT22;3006;50.956;7.002;2022-07-26T00:41:04;21.70;88.70
5960;DHT22;3006;50.956;7.002;2022-07-26T00:43:34;21.70;88.40
5960;DHT22;3006;50.956;7.002;2022-07-26T00:46:02;21.60;88.60
5960;DHT22;3006;50.956;7.002;2022-07-26T00:48:30;21.60;88.80
5960;DHT22;3006;50.956;7.002;2022-07-26T00:50:58;21.50;89.00
5960;DHT22;3006;50.956;7.002;2022-07-26T00:53:26;21.50;89.20
5960;DHT22;3006;50.956;7.002;2022-07-26T00:55:54;21.40;89.40
5960;DHT22;3006;50.956;7.002;2022-07-26T00:58:23;21.50;89.50
5960;DHT22;3006;50.956;7.002;2022-07-26T01:00:52;21.40;89.60
5960;DHT22;3006;50.956;7.002;2022-07-26T01:03:39;21.50;89.40
5960;DHT22;3006;50.956;7.002;2022-07-26T01:06:08;21.40;89.70
5960;DHT22;3006;50.956;7.002;2022-07-26T01:08:36;21.40;89.90
5960;DHT22;3006;50.956;7.002;2022-07-26T01:11:04;21.30;89.80
5960;DHT22;3006;50.956;7.002;2022-07-26T01:13:33;21.40;89.90
5960;DHT22;3006;50.956;7.002;2022-07-26T01:16:03;21.30;89.90
5960;DHT22;3006;50.956;7.002;2022-07-26T01:18:31;21.40;90.00
5960;DHT22;3006;50.956;7.002;2022-07-26T01:21:01;21.30;90.20
5960;DHT22;3006;50.956;7.002;2022-07-26T01:23:41;21.30;90.30
5960;DHT22;3006;50.956;7.002;2022-07-26T01:26:10;21.30;90.40
5960;DHT22;3006;50.956;7.002;2022-07-26T01:28:40;21.30;90.60
5960;DHT22;3006;50.956;7.002;2022-07-26T01:31:08;21.20;90.70
5960;DHT22;3006;50.956;7.002;2022-07-26T01:33:36;21.20;90.80
5960;DHT22;3006;50.956;7.002;2022-07-26T01:36:05;21.20;90.90
5960;DHT22;3006;50.956;7.002;2022-07-26T01:38:33;21.30;90.90
5960;DHT22;3006;50.956;7.002;2022-07-26T01:41:02;21.30;91.00
5960;DHT22;3006;50.956;7.002;2022-07-26T01:43:30;21.30;91.10
5960;DHT22;3006;50.956;7.002;2022-07-26T01:45:59;21.30;91.20
5960;DHT22;3006;50.956;7.002;2022-07-26T01:48:27;21.20;91.30
5960;DHT22;3006;50.956;7.002;2022-07-26T01:50:56;21.20;91.50
5960;DHT22;3006;50.956;7.002;2022-07-26T01:53:24;21.20;91.60
5960;DHT22;3006;50.956;7.002;2022-07-26T01:55:52;21.10;91.80
5960;DHT22;3006;50.956;7.002;2022-07-26T01:58:22;21.10;91.90
5960;DHT22;3006;50.956;7.002;2022-07-26T02:00:50;21.10;92.00
5960;DHT22;3006;50.956;7.002;2022-07-26T02:03:18;21.10;92.20
5960;DHT22;3006;50.956;7.002;2022-07-26T02:05:46;21.00;92.20
5960;DHT22;3006;50.956;7.002;2022-07-26T02:08:14;21.00;92.70
5960;DHT22;3006;50.956;7.002;2022-07-26T02:10:45;20.90;92.50
5960;DHT22;3006;50.956;7.002;2022-07-26T02:13:33;20.90;92.60
5960;DHT22;3006;50.956;7.002;2022-07-26T02:16:03;20.90;92.70
5960;DHT22;3006;50.956;7.002;2022-07-26T02:18:32;21.00;92.80
5960;DHT22;3006;50.956;7.002;2022-07-26T02:21:00;21.00;92.80
5960;DHT22;3006;50.956;7.002;2022-07-26T02:23:29;21.00;92.70
5960;DHT22;3006;50.956;7.002;2022-07-26T02:25:57;21.00;92.70
5960;DHT22;3006;50.956;7.002;2022-07-26T02:28:26;21.00;92.80
5960;DHT22;3006;50.956;7.002;2022-07-26T02:30:55;21.00;92.80
5960;DHT22;3006;50.956;7.002;2022-07-26T02:33:23;20.90;92.80
5960;DHT22;3006;50.956;7.002;2022-07-26T02:35:51;20.90;93.00
5960;DHT22;3006;50.956;7.002;2022-07-26T02:38:19;20.90;93.10
5960;DHT22;3006;50.956;7.002;2022-07-26T02:40:48;20.90;93.10
5960;DHT22;3006;50.956;7.002;2022-07-26T02:43:18;20.80;93.30
5960;DHT22;3006;50.956;7.002;2022-07-26T02:45:46;20.80;93.40
5960;DHT22;3006;50.956;7.002;2022-07-26T02:48:30;20.80;93.40
5960;DHT22;3006;50.956;7.002;2022-07-26T02:50:59;20.80;93.60
5960;DHT22;3006;50.956;7.002;2022-07-26T02:53:27;20.80;93.60
5960;DHT22;3006;50.956;7.002;2022-07-26T02:55:55;20.70;93.70
5960;DHT22;3006;50.956;7.002;2022-07-26T02:58:23;20.70;93.70
5960;DHT22;3006;50.956;7.002;2022-07-26T03:00:52;20.70;93.80
5960;DHT22;3006;50.956;7.002;2022-07-26T03:03:20;20.70;93.90
5960;DHT22;3006;50.956;7.002;2022-07-26T03:05:50;20.60;94.00
5960;DHT22;3006;50.956;7.002;2022-07-26T03:08:18;20.60;94.10
5960;DHT22;3006;50.956;7.002;2022-07-26T03:10:46;20.60;94.10
5960;DHT22;3006;50.956;7.002;2022-07-26T03:13:14;20.60;94.30
5960;DHT22;3006;50.956;7.002;2022-07-26T03:15:42;20.60;94.20
5960;DHT22;3006;50.956;7.002;2022-07-26T03:18:10;20.60;94.30
5960;DHT22;3006;50.956;7.002;2022-07-26T03:20:38;20.60;94.40
5960;DHT22;3006;50.956;7.002;2022-07-26T03:23:08;20.60;94.50
5960;DHT22;3006;50.956;7.002;2022-07-26T03:25:37;20.70;94.40
5960;DHT22;3006;50.956;7.002;2022-07-26T03:28:05;20.60;94.50
5960;DHT22;3006;50.956;7.002;2022-07-26T03:30:33;20.60;94.70
5960;DHT22;3006;50.956;7.002;2022-07-26T03:33:02;20.60;94.70
5960;DHT22;3006;50.956;7.002;2022-07-26T03:35:30;20.60;94.70
5960;DHT22;3006;50.956;7.002;2022-07-26T03:38:02;20.60;94.80
5960;DHT22;3006;50.956;7.002;2022-07-26T03:40:32;20.60;94.90
5960;DHT22;3006;50.956;7.002;2022-07-26T03:43:00;20.70;94.80
5960;DHT22;3006;50.956;7.002;2022-07-26T03:45:28;20.70;94.70
5960;DHT22;3006;50.956;7.002;2022-07-26T03:47:56;20.80;94.70
5960;DHT22;3006;50.956;7.002;2022-07-26T03:50:25;20.80;94.80
5960;DHT22;3006;50.956;7.002;2022-07-26T03:52:53;20.80;94.80
5960;DHT22;3006;50.956;7.002;2022-07-26T03:55:21;20.80;94.90
5960;DHT22;3006;50.956;7.002;2022-07-26T03:58:08;20.70;94.90
5960;DHT22;3006;50.956;7.002;2022-07-26T04:00:36;20.70;95.10
5960;DHT22;3006;50.956;7.002;2022-07-26T04:03:04;20.70;95.20
5960;DHT22;3006;50.956;7.002;2022-07-26T04:05:32;20.70;95.10
5960;DHT22;3006;50.956;7.002;2022-07-26T04:08:02;20.70;95.20
5960;DHT22;3006;50.956;7.002;2022-07-26T04:10:30;20.70;95.30
5960;DHT22;3006;50.956;7.002;2022-07-26T04:12:58;20.70;95.30
5960;DHT22;3006;50.956;7.002;2022-07-26T04:15:27;20.70;95.40
5960;DHT22;3006;50.956;7.002;2022-07-26T04:17:56;20.70;95.40
5960;DHT22;3006;50.956;7.002;2022-07-26T04:20:24;20.70;95.40
5960;DHT22;3006;50.956;7.002;2022-07-26T04:22:52;20.60;95.60
5960;DHT22;3006;50.956;7.002;2022-07-26T04:25:20;20.70;95.60
5960;DHT22;3006;50.956;7.002;2022-07-26T04:27:48;20.60;95.70
5960;DHT22;3006;50.956;7.002;2022-07-26T04:30:16;20.60;95.80
5960;DHT22;3006;50.956;7.002;2022-07-26T04:32:46;20.60;95.70
5960;DHT22;3006;50.956;7.002;2022-07-26T04:35:15;20.70;95.60
5960;DHT22;3006;50.956;7.002;2022-07-26T04:37:44;20.70;95.50
5960;DHT22;3006;50.956;7.002;2022-07-26T04:40:16;20.70;95.60
5960;DHT22;3006;50.956;7.002;2022-07-26T04:42:48;20.70;95.60
5960;DHT22;3006;50.956;7.002;2022-07-26T04:45:17;20.80;95.50
5960;DHT22;3006;50.956;7.002;2022-07-26T04:47:48;20.80;95.60
5960;DHT22;3006;50.956;7.002;2022-07-26T04:50:17;20.80;95.50
5960;DHT22;3006;50.956;7.002;2022-07-26T04:52:45;20.80;95.50
5960;DHT22;3006;50.956;7.002;2022-07-26T04:55:14;20.80;95.60
5960;DHT22;3006;50.956;7.002;2022-07-26T04:57:42;20.70;95.80
5960;DHT22;3006;50.956;7.002;2022-07-26T05:00:14;20.70;95.70
5960;DHT22;3006;50.956;7.002;2022-07-26T05:02:52;20.70;95.70
5960;DHT22;3006;50.956;7.002;2022-07-26T05:05:21;20.70;95.90
5960;DHT22;3006;50.956;7.002;2022-07-26T05:07:51;20.70;96.00
5960;DHT22;3006;50.956;7.002;2022-07-26T05:10:21;20.70;96.00
5960;DHT22;3006;50.956;7.002;2022-07-26T05:12:49;20.70;96.00
5960;DHT22;3006;50.956;7.002;2022-07-26T05:15:17;20.70;96.10
5960;DHT22;3006;50.956;7.002;2022-07-26T05:17:46;20.60;96.10
5960;DHT22;3006;50.956;7.002;2022-07-26T05:20:16;20.70;96.30
5960;DHT22;3006;50.956;7.002;2022-07-26T05:22:44;20.60;96.30
5960;DHT22;3006;50.956;7.002;2022-07-26T05:25:13;20.60;96.40
5960;DHT22;3006;50.956;7.002;2022-07-26T05:27:41;20.60;96.40
5960;DHT22;3006;50.956;7.002;2022-07-26T05:30:09;20.60;96.50
5960;DHT22;3006;50.956;7.002;2022-07-26T05:32:38;20.60;96.50
5960;DHT22;3006;50.956;7.002;2022-07-26T05:35:06;20.70;96.60
5960;DHT22;3006;50.956;7.002;2022-07-26T05:37:36;20.70;96.60
5960;DHT22;3006;50.956;7.002;2022-07-26T05:40:06;20.70;96.70
5960;DHT22;3006;50.956;7.002;2022-07-26T05:42:34;20.70;96.80
5960;DHT22;3006;50.956;7.002;2022-07-26T05:45:02;20.70;96.80
5960;DHT22;3006;50.956;7.002;2022-07-26T05:47:31;20.70;96.80
5960;DHT22;3006;50.956;7.002;2022-07-26T05:49:59;20.70;96.90
5960;DHT22;3006;50.956;7.002;2022-07-26T05:52:27;20.70;97.00
5960;DHT22;3006;50.956;7.002;2022-07-26T05:54:56;20.70;96.90
5960;DHT22;3006;50.956;7.002;2022-07-26T05:57:24;20.80;97.00
5960;DHT22;3006;50.956;7.002;2022-07-26T05:59:53;20.80;97.10
5960;DHT22;3006;50.956;7.002;2022-07-26T06:02:21;20.70;97.10
5960;DHT22;3006;50.956;7.002;2022-07-26T06:04:49;20.70;97.20
5960;DHT22;3006;50.956;7.002;2022-07-26T06:07:17;20.60;97.40
5960;DHT22;3006;50.956;7.002;2022-07-26T06:09:45;20.60;97.50
5960;DHT22;3006;50.956;7.002;2022-07-26T06:12:14;20.70;97.50
5960;DHT22;3006;50.956;7.002;2022-07-26T06:14:43;20.70;97.40
5960;DHT22;3006;50.956;7.002;2022-07-26T06:17:11;20.70;97.50
5960;DHT22;3006;50.956;7.002;2022-07-26T06:19:39;20.70;97.50
5960;DHT22;3006;50.956;7.002;2022-07-26T06:22:13;20.70;97.60
5960;DHT22;3006;50.956;7.002;2022-07-26T06:24:41;20.70;97.70
5960;DHT22;3006;50.956;7.002;2022-07-26T06:27:09;20.70;97.70
5960;DHT22;3006;50.956;7.002;2022-07-26T06:29:39;20.80;97.70
5960;DHT22;3006;50.956;7.002;2022-07-26T06:32:07;20.70;97.80
5960;DHT22;3006;50.956;7.002;2022-07-26T06:34:35;20.70;97.80
5960;DHT22;3006;50.956;7.002;2022-07-26T06:37:03;20.80;97.90
5960;DHT22;3006;50.956;7.002;2022-07-26T06:39:42;20.90;97.90
5960;DHT22;3006;50.956;7.002;2022-07-26T06:42:10;20.80;98.00
5960;DHT22;3006;50.956;7.002;2022-07-26T06:44:40;20.90;98.00
5960;DHT22;3006;50.956;7.002;2022-07-26T06:47:08;21.00;98.10
5960;DHT22;3006;50.956;7.002;2022-07-26T06:49:36;21.00;98.00
5960;DHT22;3006;50.956;7.002;2022-07-26T06:52:04;21.10;97.90
5960;DHT22;3006;50.956;7.002;2022-07-26T06:54:32;21.10;97.90
5960;DHT22;3006;50.956;7.002;2022-07-26T06:57:00;21.10;97.90
5960;DHT22;3006;50.956;7.002;2022-07-26T06:59:29;21.10;97.90
5960;DHT22;3006;50.956;7.002;2022-07-26T07:01:58;21.20;97.90
5960;DHT22;3006;50.956;7.002;2022-07-26T07:04:28;21.20;98.00
5960;DHT22;3006;50.956;7.002;2022-07-26T07:06:57;21.00;98.30
5960;DHT22;3006;50.956;7.002;2022-07-26T07:09:32;20.90;98.50
5960;DHT22;3006;50.956;7.002;2022-07-26T07:12:01;20.90;98.60
5960;DHT22;3006;50.956;7.002;2022-07-26T07:14:36;20.90;98.60
5960;DHT22;3006;50.956;7.002;2022-07-26T07:17:05;21.10;98.50
5960;DHT22;3006;50.956;7.002;2022-07-26T07:19:38;21.10;98.40
5960;DHT22;3006;50.956;7.002;2022-07-26T07:22:07;21.00;98.60
5960;DHT22;3006;50.956;7.002;2022-07-26T07:24:38;21.20;98.60
5960;DHT22;3006;50.956;7.002;2022-07-26T07:27:07;21.20;98.50
5960;DHT22;3006;50.956;7.002;2022-07-26T07:29:36;21.30;98.40
5960;DHT22;3006;50.956;7.002;2022-07-26T07:32:08;21.40;98.40
5960;DHT22;3006;50.956;7.002;2022-07-26T07:34:44;21.40;98.30
5960;DHT22;3006;50.956;7.002;2022-07-26T07:37:13;21.40;98.30
5960;DHT22;3006;50.956;7.002;2022-07-26T07:39:41;21.40;98.30
5960;DHT22;3006;50.956;7.002;2022-07-26T07:42:16;21.40;98.40
5960;DHT22;3006;50.956;7.002;2022-07-26T07:44:44;21.30;98.30
5960;DHT22;3006;50.956;7.002;2022-07-26T07:47:14;21.30;98.50
5960;DHT22;3006;50.956;7.002;2022-07-26T07:49:42;21.30;98.50
5960;DHT22;3006;50.956;7.002;2022-07-26T07:52:10;21.30;98.60
5960;DHT22;3006;50.956;7.002;2022-07-26T07:54:38;21.50;98.40
5960;DHT22;3006;50.956;7.002;2022-07-26T07:57:08;21.60;98.30
5960;DHT22;3006;50.956;7.002;2022-07-26T07:59:36;21.70;98.10
5960;DHT22;3006;50.956;7.002;2022-07-26T08:02:06;21.70;98.10
5960;DHT22;3006;50.956;7.002;2022-07-26T08:04:36;21.80;98.00
5960;DHT22;3006;50.956;7.002;2022-07-26T08:07:04;21.80;98.00
5960;DHT22;3006;50.956;7.002;2022-07-26T08:09:32;21.70;98.20
5960;DHT22;3006;50.956;7.002;2022-07-26T08:12:01;21.70;98.40
5960;DHT22;3006;50.956;7.002;2022-07-26T08:14:29;21.60;98.50
5960;DHT22;3006;50.956;7.002;2022-07-26T08:16:57;21.70;98.40
5960;DHT22;3006;50.956;7.002;2022-07-26T08:19:25;21.90;98.10
5960;DHT22;3006;50.956;7.002;2022-07-26T08:22:09;21.90;98.00
5960;DHT22;3006;50.956;7.002;2022-07-26T08:24:38;21.70;98.20
5960;DHT22;3006;50.956;7.002;2022-07-26T08:27:06;21.60;98.60
5960;DHT22;3006;50.956;7.002;2022-07-26T08:29:34;21.50;99.90
5960;DHT22;3006;50.956;7.002;2022-07-26T08:32:02;21.40;99.90
5960;DHT22;3006;50.956;7.002;2022-07-26T08:34:31;21.20;99.90
5960;DHT22;3006;50.956;7.002;2022-07-26T08:36:59;21.10;99.90
5960;DHT22;3006;50.956;7.002;2022-07-26T08:39:46;21.30;99.90
5960;DHT22;3006;50.956;7.002;2022-07-26T08:42:16;21.40;99.70
5960;DHT22;3006;50.956;7.002;2022-07-26T08:44:49;21.50;99.80
5960;DHT22;3006;50.956;7.002;2022-07-26T08:47:19;21.70;99.50
5960;DHT22;3006;50.956;7.002;2022-07-26T08:50:07;21.90;99.30
5960;DHT22;3006;50.956;7.002;2022-07-26T08:52:38;21.80;99.10
5960;DHT22;3006;50.956;7.002;2022-07-26T08:55:09;21.70;99.30
5960;DHT22;3006;50.956;7.002;2022-07-26T08:57:37;21.70;99.30
5960;DHT22;3006;50.956;7.002;2022-07-26T09:00:16;21.70;99.20
5960;DHT22;3006;50.956;7.002;2022-07-26T09:02:45;21.70;98.90
5960;DHT22;3006;50.956;7.002;2022-07-26T09:05:14;21.70;98.80
5960;DHT22;3006;50.956;7.002;2022-07-26T09:07:45;21.80;98.70
5960;DHT22;3006;50.956;7.002;2022-07-26T09:10:15;21.80;98.80
5960;DHT22;3006;50.956;7.002;2022-07-26T09:12:44;21.90;98.70
5960;DHT22;3006;50.956;7.002;2022-07-26T09:15:19;22.00;98.50
5960;DHT22;3006;50.956;7.002;2022-07-26T09:17:52;22.10;98.30
5960;DHT22;3006;50.956;7.002;2022-07-26T09:20:22;22.20;98.20
5960;DHT22;3006;50.956;7.002;2022-07-26T09:23:05;22.30;98.10
5960;DHT22;3006;50.956;7.002;2022-07-26T09:25:37;22.50;97.50
5960;DHT22;3006;50.956;7.002;2022-07-26T09:28:20;22.70;97.30
5960;DHT22;3006;50.956;7.002;2022-07-26T09:30:51;23.00;96.80
5960;DHT22;3006;50.956;7.002;2022-07-26T09:33:20;22.80;96.80
5960;DHT22;3006;50.956;7.002;2022-07-26T09:35:59;22.70;96.80
5960;DHT22;3006;50.956;7.002;2022-07-26T09:38:38;22.60;97.10
5960;DHT22;3006;50.956;7.002;2022-07-26T09:41:18;22.50;96.90
5960;DHT22;3006;50.956;7.002;2022-07-26T09:43:46;22.40;96.90
5960;DHT22;3006;50.956;7.002;2022-07-26T09:46:20;22.40;97.00
5960;DHT22;3006;50.956;7.002;2022-07-26T09:48:49;22.40;97.30
5960;DHT22;3006;50.956;7.002;2022-07-26T09:51:38;22.30;97.20
5960;DHT22;3006;50.956;7.002;2022-07-26T09:54:08;22.30;97.30
5960;DHT22;3006;50.956;7.002;2022-07-26T09:56:47;22.20;97.30
5960;DHT22;3006;50.956;7.002;2022-07-26T09:59:17;22.10;97.40
5960;DHT22;3006;50.956;7.002;2022-07-26T10:01:46;22.10;97.50
5960;DHT22;3006;50.956;7.002;2022-07-26T10:04:15;22.20;97.70
5960;DHT22;3006;50.956;7.002;2022-07-26T10:06:43;22.20;97.80
5960;DHT22;3006;50.956;7.002;2022-07-26T10:09:13;22.10;97.80
5960;DHT22;3006;50.956;7.002;2022-07-26T10:11:43;22.00;98.30
5960;DHT22;3006;50.956;7.002;2022-07-26T10:14:38;22.00;98.80
5960;DHT22;3006;50.956;7.002;2022-07-26T10:20:43;21.90;99.30
5960;DHT22;3006;50.956;7.002;2022-07-26T10:23:38;22.10;98.70
5960;DHT22;3006;50.956;7.002;2022-07-26T10:26:09;22.00;98.80
5960;DHT22;3006;50.956;7.002;2022-07-26T10:28:39;22.10;99.00
5960;DHT22;3006;50.956;7.002;2022-07-26T10:31:30;22.10;98.70
5960;DHT22;3006;50.956;7.002;2022-07-26T10:33:59;22.20;98.60
5960;DHT22;3006;50.956;7.002;2022-07-26T10:36:34;22.30;98.00
5960;DHT22;3006;50.956;7.002;2022-07-26T10:39:06;22.40;97.50
5960;DHT22;3006;50.956;7.002;2022-07-26T10:41:38;22.50;97.00
5960;DHT22;3006;50.956;7.002;2022-07-26T10:44:22;22.50;96.90
5960;DHT22;3006;50.956;7.002;2022-07-26T10:47:16;22.70;96.10
5960;DHT22;3006;50.956;7.002;2022-07-26T10:49:55;23.00;94.90
5960;DHT22;3006;50.956;7.002;2022-07-26T10:52:26;23.10;94.40
5960;DHT22;3006;50.956;7.002;2022-07-26T10:55:05;23.30;93.90
5960;DHT22;3006;50.956;7.002;2022-07-26T10:57:35;23.50;93.00
5960;DHT22;3006;50.956;7.002;2022-07-26T11:00:22;23.60;92.80
5960;DHT22;3006;50.956;7.002;2022-07-26T11:02:57;23.80;93.00
5960;DHT22;3006;50.956;7.002;2022-07-26T11:05:30;23.90;93.10
5960;DHT22;3006;50.956;7.002;2022-07-26T11:08:05;24.10;92.80
5960;DHT22;3006;50.956;7.002;2022-07-26T11:10:38;24.20;92.30
5960;DHT22;3006;50.956;7.002;2022-07-26T11:13:13;24.40;92.10
5960;DHT22;3006;50.956;7.002;2022-07-26T11:15:43;24.50;91.90
5960;DHT22;3006;50.956;7.002;2022-07-26T11:18:20;24.40;91.50
5960;DHT22;3006;50.956;7.002;2022-07-26T11:20:51;24.50;91.60
5960;DHT22;3006;50.956;7.002;2022-07-26T11:23:24;24.40;91.40
5960;DHT22;3006;50.956;7.002;2022-07-26T11:26:08;24.30;91.40
5960;DHT22;3006;50.956;7.002;2022-07-26T11:28:54;23.90;92.10
5960;DHT22;3006;50.956;7.002;2022-07-26T11:31:26;23.80;92.50
5960;DHT22;3006;50.956;7.002;2022-07-26T11:34:18;23.70;92.10
5960;DHT22;3006;50.956;7.002;2022-07-26T11:36:49;23.60;92.00
5960;DHT22;3006;50.956;7.002;2022-07-26T11:39:20;23.50;91.90
5960;DHT22;3006;50.956;7.002;2022-07-26T11:41:49;23.40;91.90
5960;DHT22;3006;50.956;7.002;2022-07-26T11:44:20;23.50;91.70
5960;DHT22;3006;50.956;7.002;2022-07-26T11:46:49;23.40;92.00
5960;DHT22;3006;50.956;7.002;2022-07-26T11:49:20;23.40;91.90
5960;DHT22;3006;50.956;7.002;2022-07-26T11:52:08;23.30;92.00
5960;DHT22;3006;50.956;7.002;2022-07-26T11:54:49;23.20;92.80
5960;DHT22;3006;50.956;7.002;2022-07-26T11:57:17;23.10;92.80
5960;DHT22;3006;50.956;7.002;2022-07-26T11:59:47;23.00;92.80
5960;DHT22;3006;50.956;7.002;2022-07-26T12:02:16;23.00;93.10
5960;DHT22;3006;50.956;7.002;2022-07-26T12:04:46;22.90;92.30
5960;DHT22;3006;50.956;7.002;2022-07-26T12:07:16;22.80;91.70
5960;DHT22;3006;50.956;7.002;2022-07-26T12:09:47;22.80;91.50
5960;DHT22;3006;50.956;7.002;2022-07-26T12:12:20;22.80;91.60
5960;DHT22;3006;50.956;7.002;2022-07-26T12:14:55;22.90;91.50
5960;DHT22;3006;50.956;7.002;2022-07-26T12:17:24;22.80;91.50
5960;DHT22;3006;50.956;7.002;2022-07-26T12:20:12;22.80;91.60
5960;DHT22;3006;50.956;7.002;2022-07-26T12:22:52;22.80;91.70
5960;DHT22;3006;50.956;7.002;2022-07-26T12:25:25;23.00;91.30
5960;DHT22;3006;50.956;7.002;2022-07-26T12:27:53;23.00;91.10
5960;DHT22;3006;50.956;7.002;2022-07-26T12:30:21;23.00;91.10
5960;DHT22;3006;50.956;7.002;2022-07-26T12:32:50;23.00;91.10
5960;DHT22;3006;50.956;7.002;2022-07-26T12:35:29;22.90;91.20
5960;DHT22;3006;50.956;7.002;2022-07-26T12:37:59;22.90;91.40
5960;DHT22;3006;50.956;7.002;2022-07-26T12:40:29;22.90;91.60
5960;DHT22;3006;50.956;7.002;2022-07-26T12:42:59;23.00;91.70
5960;DHT22;3006;50.956;7.002;2022-07-26T12:45:29;23.00;91.90
5960;DHT22;3006;50.956;7.002;2022-07-26T12:48:01;23.10;91.90
5960;DHT22;3006;50.956;7.002;2022-07-26T12:50:30;23.10;91.80
5960;DHT22;3006;50.956;7.002;2022-07-26T12:53:00;23.30;91.70
5960;DHT22;3006;50.956;7.002;2022-07-26T12:55:29;23.30;91.70
5960;DHT22;3006;50.956;7.002;2022-07-26T12:57:57;23.40;91.70
5960;DHT22;3006;50.956;7.002;2022-07-26T13:00:27;23.50;91.90
5960;DHT22;3006;50.956;7.002;2022-07-26T13:02:56;23.70;91.90
5960;DHT22;3006;50.956;7.002;2022-07-26T13:05:24;23.90;91.80
5960;DHT22;3006;50.956;7.002;2022-07-26T13:07:54;24.10;91.80
5960;DHT22;3006;50.956;7.002;2022-07-26T13:10:22;24.30;91.90
5960;DHT22;3006;50.956;7.002;2022-07-26T13:13:01;24.30;91.80
5960;DHT22;3006;50.956;7.002;2022-07-26T13:15:29;24.30;91.70
5960;DHT22;3006;50.956;7.002;2022-07-26T13:18:05;24.00;91.80
5960;DHT22;3006;50.956;7.002;2022-07-26T13:20:35;23.80;92.00
5960;DHT22;3006;50.956;7.002;2022-07-26T13:23:06;23.80;92.00
5960;DHT22;3006;50.956;7.002;2022-07-26T13:25:41;23.80;91.90
5960;DHT22;3006;50.956;7.002;2022-07-26T13:28:09;23.80;92.10
5960;DHT22;3006;50.956;7.002;2022-07-26T13:30:37;23.80;92.40
5960;DHT22;3006;50.956;7.002;2022-07-26T13:33:09;24.10;91.80
5960;DHT22;3006;50.956;7.002;2022-07-26T13:35:37;24.30;91.00
5960;DHT22;3006;50.956;7.002;2022-07-26T13:38:08;24.40;91.10
5960;DHT22;3006;50.956;7.002;2022-07-26T13:40:37;24.60;91.10
5960;DHT22;3006;50.956;7.002;2022-07-26T13:43:05;24.50;90.70
5960;DHT22;3006;50.956;7.002;2022-07-26T13:45:33;24.40;90.60
5960;DHT22;3006;50.956;7.002;2022-07-26T13:48:02;24.50;90.20
5960;DHT22;3006;50.956;7.002;2022-07-26T13:50:30;24.50;90.50
5960;DHT22;3006;50.956;7.002;2022-07-26T13:52:58;24.40;90.10
5960;DHT22;3006;50.956;7.002;2022-07-26T13:55:27;24.50;90.30
5960;DHT22;3006;50.956;7.002;2022-07-26T13:57:55;25.00;90.00
5960;DHT22;3006;50.956;7.002;2022-07-26T14:00:24;25.30;89.20
5960;DHT22;3006;50.956;7.002;2022-07-26T14:02:53;25.40;89.20
5960;DHT22;3006;50.956;7.002;2022-07-26T14:05:22;25.70;88.60
5960;DHT22;3006;50.956;7.002;2022-07-26T14:07:50;25.80;88.70
5960;DHT22;3006;50.956;7.002;2022-07-26T14:10:19;26.00;88.20
5960;DHT22;3006;50.956;7.002;2022-07-26T14:12:49;25.90;87.90
5960;DHT22;3006;50.956;7.002;2022-07-26T14:15:17;26.00;88.10
5960;DHT22;3006;50.956;7.002;2022-07-26T14:17:49;25.70;88.30
5960;DHT22;3006;50.956;7.002;2022-07-26T14:20:18;25.70;90.20
5960;DHT22;3006;50.956;7.002;2022-07-26T14:22:47;25.60;89.70
5960;DHT22;3006;50.956;7.002;2022-07-26T14:25:19;25.20;90.10
5960;DHT22;3006;50.956;7.002;2022-07-26T14:27:49;25.00;90.00
5960;DHT22;3006;50.956;7.002;2022-07-26T14:30:17;24.90;90.10
5960;DHT22;3006;50.956;7.002;2022-07-26T14:32:46;24.60;90.30
5960;DHT22;3006;50.956;7.002;2022-07-26T14:35:14;24.50;90.50
5960;DHT22;3006;50.956;7.002;2022-07-26T14:37:43;24.30;90.80
5960;DHT22;3006;50.956;7.002;2022-07-26T14:40:13;24.40;91.30
5960;DHT22;3006;50.956;7.002;2022-07-26T14:42:42;24.70;91.20
5960;DHT22;3006;50.956;7.002;2022-07-26T14:45:12;24.70;91.30
5960;DHT22;3006;50.956;7.002;2022-07-26T14:47:41;24.50;91.60
5960;DHT22;3006;50.956;7.002;2022-07-26T14:50:11;24.40;91.50
5960;DHT22;3006;50.956;7.002;2022-07-26T14:52:42;24.30;91.70
5960;DHT22;3006;50.956;7.002;2022-07-26T14:55:11;24.10;91.80
5960;DHT22;3006;50.956;7.002;2022-07-26T14:57:40;23.90;91.60
5960;DHT22;3006;50.956;7.002;2022-07-26T15:00:12;23.80;91.70
5960;DHT22;3006;50.956;7.002;2022-07-26T15:02:41;23.80;91.90
5960;DHT22;3006;50.956;7.002;2022-07-26T15:05:10;23.70;92.00
5960;DHT22;3006;50.956;7.002;2022-07-26T15:07:40;23.60;92.30
5960;DHT22;3006;50.956;7.002;2022-07-26T15:10:09;23.40;92.50
5960;DHT22;3006;50.956;7.002;2022-07-26T15:12:38;23.40;92.30
5960;DHT22;3006;50.956;7.002;2022-07-26T15:15:07;23.30;92.50
5960;DHT22;3006;50.956;7.002;2022-07-26T15:17:37;23.30;92.60
5960;DHT22;3006;50.956;7.002;2022-07-26T15:20:06;23.30;92.80
5960;DHT22;3006;50.956;7.002;2022-07-26T15:22:35;23.30;92.90
5960;DHT22;3006;50.956;7.002;2022-07-26T15:25:04;23.20;93.10
5960;DHT22;3006;50.956;7.002;2022-07-26T15:27:32;23.10;93.20
5960;DHT22;3006;50.956;7.002;2022-07-26T15:30:00;23.10;93.70
5960;DHT22;3006;50.956;7.002;2022-07-26T15:32:35;23.00;94.10
5960;DHT22;3006;50.956;7.002;2022-07-26T15:35:05;22.90;94.50
5960;DHT22;3006;50.956;7.002;2022-07-26T15:37:42;22.80;94.40
5960;DHT22;3006;50.956;7.002;2022-07-26T15:40:11;22.80;94.10
5960;DHT22;3006;50.956;7.002;2022-07-26T15:42:41;22.70;94.30
5960;DHT22;3006;50.956;7.002;2022-07-26T15:45:11;22.70;94.30
5960;DHT22;3006;50.956;7.002;2022-07-26T15:47:40;22.70;94.00
5960;DHT22;3006;50.956;7.002;2022-07-26T15:50:29;22.70;93.40
5960;DHT22;3006;50.956;7.002;2022-07-26T15:52:58;22.70;93.60
5960;DHT22;3006;50.956;7.002;2022-07-26T15:55:26;22.90;93.80
5960;DHT22;3006;50.956;7.002;2022-07-26T15:57:54;22.80;94.10
5960;DHT22;3006;50.956;7.002;2022-07-26T16:00:22;22.90;94.20
5960;DHT22;3006;50.956;7.002;2022-07-26T16:02:50;23.10;93.90
5960;DHT22;3006;50.956;7.002;2022-07-26T16:05:19;23.40;93.40
5960;DHT22;3006;50.956;7.002;2022-07-26T16:07:48;23.70;93.00
5960;DHT22;3006;50.956;7.002;2022-07-26T16:10:17;23.80;92.70
5960;DHT22;3006;50.956;7.002;2022-07-26T16:12:45;23.70;92.70
5960;DHT22;3006;50.956;7.002;2022-07-26T16:15:14;23.60;92.80
5960;DHT22;3006;50.956;7.002;2022-07-26T16:17:42;23.60;92.80
5960;DHT22;3006;50.956;7.002;2022-07-26T16:20:10;23.50;92.60
5960;DHT22;3006;50.956;7.002;2022-07-26T16:22:39;23.50;92.80
5960;DHT22;3006;50.956;7.002;2022-07-26T16:25:09;23.60;92.70
5960;DHT22;3006;50.956;7.002;2022-07-26T16:27:40;23.60;92.40